createdAt,value
2022-12-03T00:04:51.778Z,38.13
2022-12-03T00:09:53.403Z,40.55
2022-12-03T00:14:55.089Z,40.63
2022-12-03T00:19:56.786Z,39.90
2022-12-03T00:24:58.149Z,41.22
2022-12-03T00:29:59.598Z,37.88
2022-12-03T00:35:01.004Z,39.03
2022-12-03T00:40:03.702Z,40.03
2022-12-03T00:45:05.436Z,35.97
2022-12-03T00:50:08.201Z,44.53
2022-12-03T00:55:09.974Z,38.42
2022-12-03T01:00:12.199Z,40.83
2022-12-03T01:05:13.742Z,42.08
2022-12-03T01:10:15.317Z,44.78
2022-12-03T01:15:17.033Z,45.28
2022-12-03T01:20:18.469Z,43.35
2022-12-03T01:25:19.888Z,45.70
2022-12-03T01:30:21.318Z,48.20
2022-12-03T01:35:22.702Z,45.38
2022-12-03T01:40:24.118Z,42.67
2022-12-03T01:45:25.531Z,45.22
2022-12-03T01:50:31.641Z,47.10
2022-12-03T01:55:33.087Z,42.88
2022-12-03T02:00:34.540Z,45.75
2022-12-03T02:05:36.384Z,34.58
2022-12-03T02:10:38.127Z,37.78
2022-12-03T02:15:39.871Z,36.83
2022-12-03T02:21:01.524Z,38.90
2022-12-03T02:26:03.042Z,36.17
2022-12-03T02:31:05.386Z,32.15
2022-12-03T02:36:07.024Z,34.85
2022-12-03T02:41:09.168Z,32.08
2022-12-03T02:46:10.586Z,34.58
2022-12-03T02:51:27.086Z,32.85
2022-12-03T02:56:30.488Z,32.80
2022-12-03T03:01:32.506Z,35.20
2022-12-03T03:06:34.559Z,34.85
2022-12-03T03:11:36.041Z,34.67
2022-12-03T03:16:37.618Z,35.42
2022-12-03T03:21:39.133Z,35.90
2022-12-03T03:26:40.529Z,35.38
2022-12-03T03:31:42.942Z,38.20
2022-12-03T03:42:11.235Z,36.10
2022-12-03T03:47:13.032Z,38.80
2022-12-03T03:52:14.508Z,40.25
2022-12-03T03:57:15.906Z,37.70
2022-12-03T04:02:20.914Z,36.90
2022-12-03T04:07:22.294Z,37.80
2022-12-03T04:12:42.172Z,38.40
2022-12-03T04:17:43.512Z,38.53
2022-12-03T04:22:44.892Z,38.33
2022-12-03T04:28:05.065Z,39.22
2022-12-03T04:38:26.426Z,37.47
2022-12-03T04:43:28.336Z,40.25
2022-12-03T04:48:29.811Z,36.35
2022-12-03T04:53:31.213Z,38.40
2022-12-03T04:58:32.652Z,38.97
2022-12-03T05:03:34.063Z,40.45
2022-12-03T05:08:35.448Z,36.92
2022-12-03T05:13:36.839Z,38.10
2022-12-03T05:18:38.304Z,38.78
2022-12-03T05:23:39.762Z,37.22
2022-12-03T05:28:41.194Z,38.17
2022-12-03T05:33:44.512Z,37.25
2022-12-03T05:38:46.118Z,40.47
2022-12-03T05:43:47.475Z,38.40
2022-12-03T05:48:48.970Z,37.92
2022-12-03T05:53:50.426Z,37.20
2022-12-03T05:58:51.783Z,39.95
2022-12-03T06:03:53.231Z,38.17
2022-12-03T06:08:54.822Z,36.45
2022-12-03T06:13:56.253Z,38.85
2022-12-03T06:18:57.964Z,40.38
2022-12-03T06:24:00.046Z,37.30
2022-12-03T06:29:01.501Z,35.60
2022-12-03T06:34:03.064Z,39.30
2022-12-03T06:39:04.525Z,39.08
2022-12-03T06:44:05.961Z,36.65
2022-12-03T06:49:09.197Z,41.50
2022-12-03T06:54:10.622Z,41.92
2022-12-03T06:59:12.431Z,39.55
2022-12-03T07:04:13.906Z,37.58
2022-12-03T07:09:17.077Z,39.25
2022-12-03T07:14:18.536Z,36.80
2022-12-03T07:19:19.894Z,38.80
2022-12-03T07:24:21.559Z,39.65
2022-12-03T07:29:22.930Z,36.13
2022-12-03T07:34:24.353Z,34.45
2022-12-03T07:39:25.773Z,37.25
2022-12-03T07:44:45.674Z,42.97
2022-12-03T07:49:47.092Z,38.67
2022-12-03T07:54:48.477Z,37.90
2022-12-03T07:59:49.861Z,38.45
2022-12-03T08:04:51.384Z,40.63
2022-12-03T08:09:53.104Z,38.30
2022-12-03T08:14:54.856Z,40.35
2022-12-03T08:19:56.562Z,41.13
2022-12-03T08:24:58.704Z,40.22
2022-12-03T08:30:03.509Z,38.50
2022-12-03T08:35:15.054Z,37.20
2022-12-03T08:40:20.339Z,39.42
2022-12-03T08:45:32.770Z,39.50
2022-12-03T08:50:38.328Z,40.97
2022-12-03T08:55:47.231Z,40.55
2022-12-03T09:01:00.324Z,40.17
2022-12-03T09:06:02.219Z,43.85
2022-12-03T09:11:04.010Z,39.08
2022-12-03T09:16:05.737Z,41.15
2022-12-03T09:21:07.175Z,41.90
2022-12-03T09:26:08.616Z,42.38
2022-12-03T09:31:10.005Z,43.00
2022-12-03T09:36:11.434Z,41.17
2022-12-03T09:41:12.966Z,42.35
2022-12-03T09:46:14.513Z,42.78
2022-12-03T09:51:16.080Z,46.55
2022-12-03T09:56:20.514Z,43.17
2022-12-03T10:01:22.735Z,41.72
2022-12-03T10:06:24.190Z,44.15
2022-12-03T10:11:26.525Z,45.25
2022-12-03T10:16:30.106Z,44.40
2022-12-03T10:21:38.396Z,41.85
2022-12-03T10:26:40.683Z,44.78
2022-12-03T10:31:42.156Z,49.33
2022-12-03T10:36:43.615Z,44.58
2022-12-03T10:41:45.114Z,53.35
2022-12-03T10:47:04.172Z,55.42
2022-12-03T10:52:06.335Z,58.55
2022-12-03T10:57:09.106Z,56.55
2022-12-03T11:02:18.541Z,56.38
2022-12-03T11:07:21.487Z,53.78
2022-12-03T11:12:24.876Z,53.13
2022-12-03T11:17:43.220Z,53.65
2022-12-03T11:22:45.657Z,55.33
2022-12-03T11:28:07.054Z,57.50
2022-12-03T11:33:20.376Z,54.92
2022-12-03T11:38:36.990Z,58.10
2022-12-03T11:49:35.215Z,61.45
2022-12-03T11:54:36.896Z,56.17
2022-12-03T11:59:56.412Z,54.38
2022-12-03T12:05:14.019Z,58.00
2022-12-03T12:10:35.977Z,60.10
2022-12-03T12:15:40.217Z,56.50
2022-12-03T12:20:43.324Z,59.95
2022-12-03T12:25:47.269Z,55.67
2022-12-03T12:30:51.009Z,62.28
2022-12-03T12:35:52.572Z,59.03
2022-12-03T12:40:54.014Z,57.83
2022-12-03T12:45:56.295Z,54.67
2022-12-03T12:51:06.422Z,56.17
2022-12-03T12:56:24.390Z,57.55
2022-12-03T13:01:27.274Z,54.55
2022-12-03T13:06:30.183Z,60.80
2022-12-03T13:11:42.107Z,57.58
2022-12-03T13:16:44.457Z,56.13
2022-12-03T13:21:46.120Z,56.45
2022-12-03T13:26:47.712Z,60.60
2022-12-03T13:31:49.170Z,58.08
2022-12-03T13:36:57.167Z,57.17
2022-12-03T13:42:33.519Z,60.87
2022-12-03T13:47:34.929Z,58.65
2022-12-03T13:52:36.386Z,54.75
2022-12-03T13:57:37.777Z,58.45
2022-12-03T14:02:39.667Z,57.05
2022-12-03T14:07:41.248Z,60.58
2022-12-03T14:12:42.695Z,59.63
2022-12-03T14:17:44.151Z,56.97
2022-12-03T14:22:45.541Z,56.72
2022-12-03T14:27:46.956Z,60.92
2022-12-03T14:32:48.425Z,57.25
2022-12-03T14:37:49.839Z,56.88
2022-12-03T14:42:51.235Z,57.85
2022-12-03T14:47:52.714Z,58.65
2022-12-03T14:52:54.196Z,57.33
2022-12-03T14:57:56.214Z,53.47
2022-12-03T15:02:57.810Z,56.42
2022-12-03T15:07:59.356Z,56.97
2022-12-03T15:13:00.797Z,57.30
2022-12-03T15:18:02.315Z,55.45
2022-12-03T15:23:07.854Z,53.63
2022-12-03T15:28:12.773Z,55.90
2022-12-03T15:33:14.331Z,55.47
2022-12-03T15:38:15.782Z,54.78
2022-12-03T15:43:17.287Z,56.47
2022-12-03T15:48:18.789Z,56.40
2022-12-03T15:53:20.251Z,56.70
2022-12-03T15:58:21.696Z,65.70
2022-12-03T16:03:23.332Z,63.53
2022-12-03T16:08:25.773Z,59.50
2022-12-03T16:13:27.168Z,58.22
2022-12-03T16:18:28.623Z,61.00
2022-12-03T16:23:30.062Z,64.53
2022-12-03T16:28:31.515Z,61.95
2022-12-03T16:33:32.943Z,57.53
2022-12-03T16:38:34.406Z,60.50
2022-12-03T16:43:38.715Z,62.90
2022-12-03T16:48:40.478Z,56.20
2022-12-03T16:53:42.110Z,63.40
2022-12-03T16:58:43.899Z,62.38
2022-12-03T17:03:45.362Z,67.60
2022-12-03T17:08:49.744Z,62.75
2022-12-03T17:13:51.377Z,63.25
2022-12-03T17:18:52.816Z,64.07
2022-12-03T17:23:54.207Z,61.40
2022-12-03T17:28:55.666Z,61.80
2022-12-03T17:33:57.867Z,67.38
2022-12-03T17:38:59.334Z,58.38
2022-12-03T17:44:03.555Z,57.47
2022-12-03T17:49:07.522Z,66.22
2022-12-03T17:54:08.938Z,69.45
2022-12-03T17:59:10.834Z,57.50
2022-12-03T18:04:12.309Z,55.00
2022-12-03T18:09:13.865Z,59.08
2022-12-03T18:14:15.296Z,57.85
2022-12-03T18:19:16.795Z,58.65
2022-12-03T18:24:18.236Z,60.30
2022-12-03T18:29:19.767Z,59.80
2022-12-03T18:34:21.196Z,60.70
2022-12-03T18:39:27.423Z,56.55
2022-12-03T18:44:31.496Z,54.25
2022-12-03T18:49:33.002Z,58.95
2022-12-03T18:54:34.431Z,53.75
2022-12-03T18:59:36.178Z,56.95
2022-12-03T19:04:37.602Z,59.45
2022-12-03T19:09:39.719Z,52.83
2022-12-03T19:14:41.143Z,52.22
2022-12-03T19:19:42.572Z,60.20
2022-12-03T19:24:44.089Z,58.35
2022-12-03T19:29:48.002Z,55.97
2022-12-03T19:34:49.501Z,55.65
2022-12-03T19:39:53.268Z,56.13
2022-12-03T19:44:55.025Z,53.63
2022-12-03T19:49:56.811Z,56.58
2022-12-03T19:54:58.678Z,56.15
2022-12-03T20:00:01.220Z,54.88
2022-12-03T20:05:02.651Z,53.65
2022-12-03T20:10:05.634Z,53.47
2022-12-03T20:15:07.282Z,53.72
2022-12-03T20:20:09.139Z,52.50
2022-12-03T20:25:10.818Z,59.00
2022-12-03T20:30:12.470Z,50.30
2022-12-03T20:35:13.914Z,49.33
2022-12-03T20:40:15.381Z,47.22
2022-12-03T20:45:16.833Z,47.90
2022-12-03T20:50:18.241Z,49.53
2022-12-03T20:55:19.684Z,48.17
2022-12-03T21:00:21.193Z,48.80
2022-12-03T21:05:22.977Z,49.53
2022-12-03T21:10:36.474Z,45.00
2022-12-03T21:15:37.953Z,42.95
2022-12-03T21:20:40.251Z,49.75
2022-12-03T21:25:41.689Z,50.72
2022-12-03T21:30:43.154Z,53.72
2022-12-03T21:35:44.577Z,51.38
2022-12-03T21:40:46.038Z,50.03
2022-12-03T21:45:47.510Z,48.95
2022-12-03T21:51:18.272Z,51.30
2022-12-03T22:01:47.500Z,50.30
2022-12-03T22:06:49.083Z,56.35
2022-12-03T22:11:50.547Z,51.10
2022-12-03T22:16:52.013Z,53.47
2022-12-03T22:21:53.403Z,55.85
2022-12-03T22:26:55.053Z,58.13
2022-12-03T22:31:56.460Z,50.90
2022-12-03T22:36:58.020Z,52.67
2022-12-03T22:41:59.441Z,55.03
2022-12-03T22:47:00.864Z,54.88
2022-12-03T22:52:02.386Z,57.13
2022-12-03T22:57:03.815Z,56.60
2022-12-03T23:02:05.205Z,57.95
2022-12-03T23:07:08.148Z,62.40
2022-12-03T23:12:10.011Z,59.35
2022-12-03T23:17:11.467Z,57.40
2022-12-03T23:22:12.849Z,52.85
2022-12-03T23:27:14.251Z,61.15
2022-12-03T23:32:15.748Z,56.83
2022-12-03T23:37:17.114Z,60.97
2022-12-03T23:42:18.738Z,57.17
2022-12-03T23:47:20.243Z,59.15
2022-12-03T23:52:21.702Z,56.08
2022-12-03T23:57:23.128Z,55.30
